^^
Datos históricos de la estación: Murcia-Puente Tocinos
Diario Informe para Mayo 16, 2019 Unidades:  Métrico    Inglés   Ambas
Diario Semanal Mensual Anual Configurable
  Máximo: Mínimo: Media:
Temperatura: 24.1 °C 17.3 °C 20.3 °C
Punto de rocio: 15.8 °C 9.9 °C 13.4 °C
Humedad: 84% 46% 66%
Velocidad viento: 19.3km/h 0.0km/h 9.4km/h
Racha viento: 42.6km/h - -
Viento- - ENE
Presión: 1012.1 hPa 1004.3 hPa -
Precipitación: 0.0 mm    
Historical Graphs
 
 
Tabla de datos para Mayo 16, 2019
Hora Temperatura Punto de rocio Presión Viento Velocidad viento Racha viento Humedad Intensidad lluvia(por hora) Nubes
00:00 19.3 °C 15.8 °C 1011.7 hPa NE 11.3 km/h 24.1 km/h 80% 0.0 mm CLR
00:05 19.1 °C 15.4 °C 1011.9 hPa NNE 11.1 km/h 27.8 km/h 79% 0.0 mm CLR
00:07 19.0 °C 15.3 °C 1011.9 hPa ENE 11.1 km/h 24.1 km/h 79% 0.0 mm CLR
00:13 18.9 °C 15.2 °C 1011.9 hPa NE 17.2 km/h 22.2 km/h 79% 0.0 mm CLR
00:40 18.6 °C 14.7 °C 1012.0 hPa East 11.3 km/h 22.5 km/h 78% 0.0 mm CLR
00:44 18.6 °C 14.7 °C 1012.0 hPa ESE 11.1 km/h 20.4 km/h 78% 0.0 mm CLR
00:50 18.6 °C 14.7 °C 1012.0 hPa NE 14.5 km/h 24.1 km/h 78% 0.0 mm CLR
00:55 18.6 °C 14.7 °C 1012.0 hPa ENE 14.5 km/h 19.3 km/h 78% 0.0 mm CLR
01:00 18.6 °C 14.9 °C 1012.0 hPa ENE 9.7 km/h 14.5 km/h 79% 0.0 mm CLR
01:05 18.6 °C 14.9 °C 1012.0 hPa NE 9.7 km/h 19.3 km/h 79% 0.0 mm CLR
01:10 18.4 °C 14.7 °C 1012.0 hPa NE 9.7 km/h 22.5 km/h 79% 0.0 mm CLR
01:15 18.3 °C 14.6 °C 1012.0 hPa NE 9.7 km/h 22.5 km/h 79% 0.0 mm CLR
01:20 18.3 °C 14.6 °C 1012.0 hPa NE 12.9 km/h 20.9 km/h 79% 0.0 mm CLR
01:25 18.2 °C 14.7 °C 1012.0 hPa NE 12.9 km/h 22.5 km/h 80% 0.0 mm CLR
01:30 18.1 °C 14.6 °C 1012.0 hPa NE 12.9 km/h 19.3 km/h 80% 0.0 mm CLR
01:35 18.1 °C 14.6 °C 1012.1 hPa ENE 12.2 km/h 9.3 km/h 80% 0.0 mm CLR
01:39 18.0 °C 14.5 °C 1012.1 hPa NE 8.7 km/h 9.3 km/h 80% 0.0 mm CLR
01:45 17.9 °C 14.4 °C 1012.1 hPa NE 9.7 km/h 20.9 km/h 80% 0.0 mm CLR
01:49 17.9 °C 14.4 °C 1012.0 hPa North 9.5 km/h 13.0 km/h 80% 0.0 mm CLR
01:55 17.8 °C 14.3 °C 1012.0 hPa NNE 9.7 km/h 9.7 km/h 80% 0.0 mm CLR
02:00 17.8 °C 14.5 °C 1012.0 hPa NNE 8.0 km/h 11.3 km/h 81% 0.0 mm CLR
02:05 17.7 °C 14.4 °C 1012.1 hPa NNE 8.0 km/h 8.0 km/h 81% 0.0 mm CLR
02:10 17.7 °C 14.4 °C 1012.1 hPa NNE 4.8 km/h 12.9 km/h 81% 0.0 mm CLR
02:15 17.7 °C 14.4 °C 1012.1 hPa NNE 4.8 km/h 12.9 km/h 81% 0.0 mm CLR
02:16 17.6 °C 14.3 °C 1012.1 hPa NNE 5.0 km/h 9.3 km/h 81% 0.0 mm CLR
02:40 17.7 °C 14.3 °C 1012.1 hPa NNE 4.8 km/h 9.7 km/h 81% 0.0 mm CLR
02:45 17.4 °C 14.3 °C 1011.9 hPa NNE 4.8 km/h 12.9 km/h 82% 0.0 mm CLR
02:50 17.4 °C 14.3 °C 1011.8 hPa NE 8.0 km/h 14.5 km/h 82% 0.0 mm CLR
02:55 17.4 °C 14.5 °C 1011.8 hPa NE 8.0 km/h 11.3 km/h 83% 0.0 mm CLR
03:00 17.4 °C 14.5 °C 1011.8 hPa NE 8.0 km/h 9.7 km/h 83% 0.0 mm CLR
03:05 17.4 °C 14.5 °C 1011.6 hPa NE 8.0 km/h 9.7 km/h 83% 0.0 mm CLR
03:10 17.4 °C 14.5 °C 1011.6 hPa NE 4.8 km/h 8.0 km/h 83% 0.0 mm CLR
03:15 17.3 °C 14.2 °C 1011.6 hPa NNE 4.8 km/h 9.7 km/h 82% 0.0 mm CLR
03:20 17.3 °C 14.2 °C 1011.7 hPa NNE 4.8 km/h 8.0 km/h 82% 0.0 mm CLR
03:25 17.3 °C 14.2 °C 1011.7 hPa NNE 4.8 km/h 8.0 km/h 82% 0.0 mm CLR
03:30 17.4 °C 14.3 °C 1011.7 hPa NNE 3.2 km/h 8.0 km/h 82% 0.0 mm CLR
03:35 17.4 °C 14.3 °C 1011.7 hPa NNE 3.2 km/h 8.0 km/h 82% 0.0 mm CLR
03:40 17.4 °C 14.3 °C 1011.7 hPa North 3.2 km/h 8.0 km/h 82% 0.0 mm CLR
03:45 17.4 °C 14.1 °C 1011.7 hPa North 3.2 km/h 9.7 km/h 81% 0.0 mm CLR
03:50 17.4 °C 14.1 °C 1011.5 hPa NNE 3.2 km/h 9.7 km/h 81% 0.0 mm CLR
03:55 17.4 °C 14.1 °C 1011.5 hPa NNE 3.2 km/h 8.0 km/h 81% 0.0 mm CLR
04:00 17.4 °C 14.1 °C 1011.5 hPa North 4.8 km/h 8.0 km/h 81% 0.0 mm CLR
04:05 17.4 °C 14.1 °C 1011.6 hPa NNE 4.8 km/h 8.0 km/h 81% 0.0 mm CLR
04:10 17.4 °C 14.1 °C 1011.6 hPa NNE 4.7 km/h 3.7 km/h 81% 0.0 mm CLR
04:15 17.4 °C 14.1 °C 1011.6 hPa NE 3.2 km/h 8.0 km/h 81% 0.0 mm CLR
04:20 17.4 °C 14.1 °C 1011.6 hPa NE 3.2 km/h 6.4 km/h 81% 0.0 mm CLR
04:25 17.4 °C 14.1 °C 1011.6 hPa NE 3.2 km/h 8.0 km/h 81% 0.0 mm CLR
04:30 17.4 °C 14.1 °C 1011.6 hPa NE 3.2 km/h 6.4 km/h 81% 0.0 mm CLR
04:35 17.5 °C 14.2 °C 1011.5 hPa NNE 3.2 km/h 8.0 km/h 81% 0.0 mm CLR
04:40 17.5 °C 14.2 °C 1011.5 hPa NNE 3.2 km/h 8.0 km/h 81% 0.0 mm CLR
04:45 17.5 °C 14.2 °C 1011.5 hPa NNE 3.2 km/h 8.0 km/h 81% 0.0 mm CLR
04:50 17.5 °C 14.2 °C 1011.4 hPa NNE 3.2 km/h 6.4 km/h 81% 0.0 mm CLR
04:55 17.5 °C 14.2 °C 1011.4 hPa NNE 3.2 km/h 6.4 km/h 81% 0.0 mm CLR
05:00 17.5 °C 14.2 °C 1011.4 hPa NE 3.2 km/h 6.4 km/h 81% 0.0 mm CLR
05:05 17.5 °C 14.2 °C 1011.4 hPa NE 3.2 km/h 8.0 km/h 81% 0.0 mm CLR
05:10 17.4 °C 14.1 °C 1011.4 hPa NNE 3.2 km/h 8.0 km/h 81% 0.0 mm CLR
05:15 17.4 °C 14.1 °C 1011.4 hPa NNE 3.2 km/h 4.8 km/h 81% 0.0 mm CLR
05:20 17.4 °C 14.1 °C 1011.4 hPa NNE 3.2 km/h 8.0 km/h 81% 0.0 mm CLR
05:25 17.4 °C 14.1 °C 1011.4 hPa NE 3.2 km/h 8.0 km/h 81% 0.0 mm CLR
05:30 17.4 °C 14.1 °C 1011.4 hPa ENE 3.2 km/h 8.0 km/h 81% 0.0 mm CLR
05:35 17.4 °C 14.1 °C 1011.3 hPa NE 3.2 km/h 8.0 km/h 81% 0.0 mm CLR
05:40 17.4 °C 14.1 °C 1011.3 hPa NE 3.2 km/h 3.2 km/h 81% 0.0 mm CLR
05:45 17.4 °C 14.1 °C 1011.3 hPa NNE 3.2 km/h   81% 0.0 mm CLR
05:50 17.4 °C 14.1 °C 1011.2 hPa Calm     81% 0.0 mm CLR
05:55 17.5 °C 14.2 °C 1011.2 hPa Calm     81% 0.0 mm CLR
06:00 17.5 °C 14.2 °C 1011.2 hPa Calm     81% 0.0 mm CLR
06:05 17.6 °C 14.3 °C 1011.1 hPa Calm   6.4 km/h 81% 0.0 mm CLR
06:10 17.6 °C 14.3 °C 1011.1 hPa Calm     81% 0.0 mm CLR
06:15 17.6 °C 14.3 °C 1011.1 hPa Calm   3.2 km/h 81% 0.0 mm CLR
06:20 17.6 °C 14.3 °C 1011.1 hPa North 2.3 km/h   81% 0.0 mm CLR
06:25 17.6 °C 14.3 °C 1011.1 hPa NNE 1.6 km/h 8.0 km/h 81% 0.0 mm CLR
06:30 17.6 °C 14.3 °C 1011.1 hPa NE 3.2 km/h 8.0 km/h 81% 0.0 mm CLR
06:35 17.5 °C 14.2 °C 1011.2 hPa NE 3.2 km/h 9.7 km/h 81% 0.0 mm CLR
06:40 17.6 °C 14.3 °C 1011.2 hPa NE 4.8 km/h 9.7 km/h 81% 0.0 mm CLR
06:45 17.6 °C 14.3 °C 1011.2 hPa NNE 4.8 km/h 9.7 km/h 81% 0.0 mm CLR
06:50 17.6 °C 14.3 °C 1011.2 hPa NNE 4.8 km/h 11.3 km/h 81% 0.0 mm CLR
06:55 17.6 °C 14.4 °C 1011.2 hPa NE 4.8 km/h 14.5 km/h 82% 0.0 mm CLR
07:00 17.6 °C 14.5 °C 1011.2 hPa NE 8.0 km/h 11.3 km/h 82% 0.0 mm CLR
07:05 17.5 °C 14.4 °C 1011.2 hPa NNE 8.0 km/h 11.3 km/h 82% 0.0 mm CLR
07:10 17.5 °C 14.4 °C 1011.2 hPa NNE 8.0 km/h 11.3 km/h 82% 0.0 mm CLR
07:15 17.6 °C 14.7 °C 1011.2 hPa NNE 8.0 km/h 9.7 km/h 83% 0.0 mm CLR
07:20 17.6 °C 14.7 °C 1011.2 hPa NNE 4.8 km/h 9.7 km/h 83% 0.0 mm CLR
07:25 17.6 °C 14.7 °C 1011.2 hPa NNE 4.8 km/h 8.0 km/h 83% 0.0 mm CLR
07:30 17.6 °C 14.7 °C 1011.2 hPa NE 4.8 km/h 9.7 km/h 83% 0.0 mm CLR
07:35 17.6 °C 14.7 °C 1011.2 hPa NE 4.8 km/h 11.3 km/h 83% 0.0 mm CLR
07:40 17.6 °C 14.7 °C 1011.2 hPa NE 4.8 km/h 11.3 km/h 83% 0.0 mm CLR
07:45 17.7 °C 14.9 °C 1011.2 hPa ENE 4.8 km/h 9.7 km/h 84% 0.0 mm CLR
07:50 17.7 °C 14.9 °C 1011.3 hPa NE 4.8 km/h 8.0 km/h 84% 0.0 mm CLR
07:55 17.8 °C 15.1 °C 1011.3 hPa NE 4.8 km/h 8.0 km/h 84% 0.0 mm CLR
08:00 17.8 °C 14.9 °C 1011.3 hPa NE 3.2 km/h 8.0 km/h 83% 0.0 mm CLR
08:05 18.0 °C 15.1 °C 1011.4 hPa NNE 3.2 km/h 12.9 km/h 83% 0.0 mm CLR
08:10 18.2 °C 15.1 °C 1011.4 hPa NNE 8.0 km/h 14.5 km/h 82% 0.0 mm CLR
08:15 18.3 °C 15.1 °C 1011.4 hPa NNE 8.0 km/h 11.3 km/h 81% 0.0 mm CLR
08:20 18.6 °C 15.1 °C 1011.4 hPa NNE 8.0 km/h 14.5 km/h 80% 0.0 mm CLR
08:25 18.7 °C 15.0 °C 1011.4 hPa NE 8.0 km/h 16.1 km/h 79% 0.0 mm CLR
08:30 18.8 °C 14.7 °C 1011.4 hPa NE 9.7 km/h 16.1 km/h 77% 0.0 mm CLR
08:35 18.6 °C 14.7 °C 1011.4 hPa NE 9.7 km/h 16.1 km/h 78% 0.0 mm CLR
08:40 18.8 °C 14.7 °C 1011.4 hPa NE 9.7 km/h 14.5 km/h 77% 0.0 mm CLR
08:45 18.9 °C 14.6 °C 1011.4 hPa NE 9.5 km/h 13.0 km/h 76% 0.0 mm CLR
08:50 18.8 °C 14.3 °C 1011.5 hPa NE 9.7 km/h 12.9 km/h 75% 0.0 mm CLR
08:55 18.9 °C 14.2 °C 1011.5 hPa NE 9.7 km/h 12.9 km/h 74% 0.0 mm CLR
09:00 19.1 °C 13.9 °C 1011.5 hPa NE 8.0 km/h 16.1 km/h 72% 0.0 mm CLR
09:05 19.1 °C 13.9 °C 1011.4 hPa NE 8.0 km/h 12.9 km/h 72% 0.0 mm CLR
09:10 19.3 °C 13.7 °C 1011.4 hPa NE 8.0 km/h 14.5 km/h 70% 0.0 mm CLR
09:15 19.6 °C 13.8 °C 1011.4 hPa ENE 8.0 km/h 11.3 km/h 69% 0.0 mm CLR
09:20 19.8 °C 14.2 °C 1011.4 hPa ENE 4.8 km/h 14.5 km/h 70% 0.0 mm CLR
09:25 19.8 °C 14.2 °C 1011.4 hPa ENE 4.8 km/h 11.3 km/h 70% 0.0 mm CLR
09:30 19.8 °C 14.2 °C 1011.4 hPa NE 8.0 km/h 16.1 km/h 70% 0.0 mm CLR
09:35 19.7 °C 14.1 °C 1011.3 hPa NE 8.0 km/h 11.3 km/h 70% 0.0 mm CLR
09:40 19.8 °C 14.2 °C 1011.3 hPa NNE 8.0 km/h 11.3 km/h 70% 0.0 mm CLR
09:45 20.0 °C 13.9 °C 1011.3 hPa NNE 8.0 km/h 9.7 km/h 68% 0.0 mm CLR
09:50 20.2 °C 13.9 °C 1011.2 hPa NE 4.8 km/h 14.5 km/h 67% 0.0 mm CLR
09:55 20.2 °C 14.1 °C 1011.2 hPa NE 4.8 km/h 9.7 km/h 68% 0.0 mm CLR
10:00 20.3 °C 13.9 °C 1011.2 hPa NE 4.8 km/h 11.3 km/h 67% 0.0 mm CLR
10:05 20.4 °C 13.6 °C 1011.1 hPa NE 4.8 km/h 12.9 km/h 65% 0.0 mm CLR
10:10 20.5 °C 13.4 °C 1011.1 hPa NNE 8.0 km/h 14.5 km/h 64% 0.0 mm CLR
10:15 20.3 °C 13.0 °C 1011.1 hPa NE 6.9 km/h 11.1 km/h 63% 0.0 mm CLR
10:20 20.3 °C 13.0 °C 1010.9 hPa NE 9.7 km/h 14.5 km/h 63% 0.0 mm CLR
10:25 20.5 °C 13.0 °C 1010.9 hPa NE 9.7 km/h 12.9 km/h 62% 0.0 mm CLR
10:30 20.8 °C 13.0 °C 1010.9 hPa NE 8.0 km/h 12.9 km/h 61% 0.0 mm CLR
10:35 20.9 °C 13.1 °C 1010.9 hPa NE 8.0 km/h 14.5 km/h 61% 0.0 mm CLR
10:40 21.2 °C 12.6 °C 1010.9 hPa NE 8.0 km/h 17.7 km/h 58% 0.0 mm CLR
10:45 20.9 °C 12.6 °C 1010.9 hPa NE 8.0 km/h 17.7 km/h 59% 0.0 mm CLR
10:50 21.1 °C 11.7 °C 1010.7 hPa East 8.7 km/h 14.8 km/h 55% 0.0 mm CLR
10:55 21.2 °C 11.8 °C 1010.7 hPa ENE 9.7 km/h 17.7 km/h 55% 0.0 mm CLR
11:00 21.4 °C 11.9 °C 1010.7 hPa ENE 9.7 km/h 16.1 km/h 55% 0.0 mm CLR
11:05 21.3 °C 11.6 °C 1010.8 hPa NE 9.7 km/h 16.1 km/h 54% 0.0 mm CLR
11:10 21.2 °C 11.2 °C 1010.8 hPa NE 9.7 km/h 14.5 km/h 53% 0.0 mm CLR
11:15 21.4 °C 11.4 °C 1010.8 hPa NE 9.7 km/h 16.1 km/h 53% 0.0 mm CLR
11:20 21.6 °C 11.6 °C 1010.6 hPa NE 9.7 km/h 14.5 km/h 53% 0.0 mm CLR
11:25 21.8 °C 11.8 °C 1010.6 hPa NE 9.5 km/h 7.4 km/h 53% 0.0 mm CLR
11:30 22.1 °C 11.2 °C 1010.6 hPa NE 4.8 km/h 24.1 km/h 50% 0.0 mm CLR
11:35 22.1 °C 9.9 °C 1010.5 hPa NE 4.8 km/h 19.3 km/h 46% 0.0 mm CLR
11:40 22.2 °C 10.0 °C 1010.5 hPa ENE 9.7 km/h 14.5 km/h 46% 0.0 mm CLR
11:45 22.2 °C 10.7 °C 1010.5 hPa NE 9.7 km/h 16.1 km/h 48% 0.0 mm CLR
11:50 22.4 °C 10.6 °C 1010.3 hPa NE 9.7 km/h 25.7 km/h 47% 0.0 mm CLR
11:55 22.1 °C 10.3 °C 1010.3 hPa NE 9.7 km/h 25.7 km/h 47% 0.0 mm CLR
11:59 22.1 °C 10.3 °C 1010.3 hPa East 13.0 km/h 13.0 km/h 47% 0.0 mm CLR
12:05 22.3 °C 10.1 °C 1010.2 hPa NE 12.9 km/h 24.1 km/h 46% 0.0 mm CLR
12:10 22.3 °C 10.1 °C 1010.2 hPa NE 9.7 km/h 17.7 km/h 46% 0.0 mm CLR
12:15 22.4 °C 10.6 °C 1010.2 hPa NE 9.7 km/h 20.9 km/h 47% 0.0 mm CLR
12:20 22.6 °C 10.7 °C 1010.0 hPa NE 11.3 km/h 22.5 km/h 47% 0.0 mm CLR
12:25 22.7 °C 10.8 °C 1010.0 hPa NE 11.3 km/h 25.7 km/h 47% 0.0 mm CLR
12:30 22.8 °C 10.6 °C 1010.0 hPa NE 14.5 km/h 25.7 km/h 46% 0.0 mm CLR
12:34 22.8 °C 10.6 °C 1009.9 hPa East 14.0 km/h 11.1 km/h 46% 0.0 mm CLR
12:40 23.0 °C 10.8 °C 1009.9 hPa NE 9.7 km/h 24.1 km/h 46% 0.0 mm CLR
12:45 22.9 °C 10.7 °C 1009.9 hPa NE 9.7 km/h 22.5 km/h 46% 0.0 mm CLR
12:50 22.8 °C 10.9 °C 1009.6 hPa NE 14.5 km/h 24.1 km/h 47% 0.0 mm CLR
12:55 22.7 °C 11.1 °C 1009.6 hPa NE 14.5 km/h 25.7 km/h 48% 0.0 mm CLR
12:59 22.8 °C 11.2 °C 1009.6 hPa SE 13.0 km/h 13.0 km/h 48% 0.0 mm CLR
13:04 23.2 °C 11.6 °C 1009.5 hPa NE 13.0 km/h 18.5 km/h 48% 0.0 mm CLR
13:10 23.3 °C 11.7 °C 1009.5 hPa NE 11.3 km/h 22.5 km/h 48% 0.0 mm CLR
13:15 23.2 °C 11.6 °C 1009.5 hPa NE 11.3 km/h 20.9 km/h 48% 0.0 mm CLR
13:20 22.8 °C 11.6 °C 1009.4 hPa NE 14.5 km/h 25.7 km/h 49% 0.0 mm CLR
13:25 23.1 °C 11.8 °C 1009.4 hPa NE 14.5 km/h 22.5 km/h 49% 0.0 mm CLR
13:30 23.2 °C 12.2 °C 1009.4 hPa NNE 13.7 km/h 16.7 km/h 50% 0.0 mm CLR
13:35 23.3 °C 12.0 °C 1009.2 hPa NE 12.9 km/h 24.1 km/h 49% 0.0 mm CLR
13:40 23.2 °C 11.9 °C 1009.2 hPa NE 12.9 km/h 22.5 km/h 49% 0.0 mm CLR
13:45 23.0 °C 11.7 °C 1009.2 hPa NE 13.7 km/h 27.8 km/h 49% 0.0 mm CLR
13:50 22.9 °C 11.9 °C 1009.0 hPa NE 16.1 km/h 32.2 km/h 50% 0.0 mm CLR
13:55 23.2 °C 12.2 °C 1009.0 hPa ENE 16.1 km/h 25.7 km/h 50% 0.0 mm CLR
13:59 23.3 °C 12.3 °C 1009.0 hPa ENE 13.7 km/h 20.4 km/h 50% 0.0 mm CLR
14:05 23.4 °C 12.1 °C 1008.7 hPa NE 12.9 km/h 27.4 km/h 49% 0.0 mm CLR
14:10 23.4 °C 12.1 °C 1008.7 hPa NE 14.5 km/h 25.7 km/h 49% 0.0 mm CLR
14:14 23.4 °C 12.1 °C 1008.7 hPa NE 15.6 km/h 27.8 km/h 49% 0.0 mm CLR
14:20 23.5 °C 12.5 °C 1008.7 hPa NE 14.5 km/h 24.1 km/h 50% 0.0 mm CLR
14:24 23.4 °C 12.4 °C 1008.7 hPa NE 14.0 km/h 25.9 km/h 50% 0.0 mm CLR
14:30 23.6 °C 12.6 °C 1008.7 hPa NE 14.5 km/h 27.4 km/h 50% 0.0 mm CLR
14:35 23.4 °C 12.1 °C 1008.4 hPa NE 14.5 km/h 33.8 km/h 49% 0.0 mm CLR
14:40 23.4 °C 12.1 °C 1008.4 hPa NE 19.3 km/h 29.0 km/h 49% 0.0 mm CLR
14:45 23.3 °C 12.3 °C 1008.4 hPa NE 19.3 km/h 27.4 km/h 50% 0.0 mm CLR
14:49 23.5 °C 12.5 °C 1008.2 hPa ENE 16.4 km/h 33.3 km/h 50% 0.0 mm CLR
14:54 23.6 °C 11.9 °C 1008.2 hPa ESE 16.4 km/h 42.6 km/h 48% 0.0 mm CLR
15:00 23.8 °C 11.5 °C 1008.2 hPa East 16.1 km/h 29.0 km/h 46% 0.0 mm CLR
15:04 24.1 °C 11.8 °C 1007.9 hPa ESE 16.4 km/h 22.5 km/h 46% 0.0 mm CLR
15:10 23.9 °C 11.6 °C 1007.9 hPa ESE 14.5 km/h 24.1 km/h 46% 0.0 mm CLR
15:15 23.9 °C 11.9 °C 1007.9 hPa SE 14.5 km/h 22.5 km/h 47% 0.0 mm CLR
15:20 23.9 °C 11.9 °C 1007.6 hPa SE 12.9 km/h 22.5 km/h 47% 0.0 mm CLR
15:24 23.9 °C 11.9 °C 1007.6 hPa ESE 13.0 km/h 20.4 km/h 47% 0.0 mm CLR
15:29 24.1 °C 12.1 °C 1007.6 hPa ESE 13.0 km/h 18.5 km/h 47% 0.0 mm CLR
15:34 24.1 °C 12.4 °C 1007.4 hPa SE 13.0 km/h 16.4 km/h 48% 0.0 mm CLR
15:40 24.1 °C 13.0 °C 1007.4 hPa ESE 12.9 km/h 27.4 km/h 50% 0.0 mm CLR
15:44 24.1 °C 12.7 °C 1007.4 hPa ESE 12.2 km/h 18.5 km/h 49% 0.0 mm CLR
15:50 24.0 °C 12.9 °C 1007.4 hPa ESE 14.5 km/h 25.7 km/h 50% 0.0 mm CLR
15:55 23.9 °C 12.8 °C 1007.4 hPa ESE 14.5 km/h 25.7 km/h 50% 0.0 mm CLR
16:00 23.8 °C 13.1 °C 1007.4 hPa ESE 14.5 km/h 24.1 km/h 51% 0.0 mm CLR
16:04 23.9 °C 13.2 °C 1007.1 hPa SE 15.6 km/h 20.4 km/h 51% 0.0 mm CLR
16:10 23.8 °C 13.1 °C 1007.1 hPa ESE 14.5 km/h 30.6 km/h 51% 0.0 mm CLR
16:14 23.4 °C 13.0 °C 1007.1 hPa East 14.0 km/h 27.8 km/h 52% 0.0 mm CLR
16:19 23.6 °C 13.4 °C 1007.0 hPa SE 17.2 km/h 20.4 km/h 53% 0.0 mm CLR
16:25 23.8 °C 13.1 °C 1007.0 hPa ESE 16.1 km/h 24.1 km/h 51% 0.0 mm CLR
16:30 23.8 °C 13.4 °C 1007.0 hPa ESE 12.9 km/h 29.0 km/h 52% 0.0 mm CLR
16:35 23.7 °C 13.3 °C 1006.8 hPa ESE 12.9 km/h 29.0 km/h 52% 0.0 mm CLR
16:39 23.6 °C 12.9 °C 1006.8 hPa ESE 16.1 km/h 24.1 km/h 51% 0.0 mm CLR
16:44 23.8 °C 13.1 °C 1006.8 hPa ESE 16.1 km/h 24.1 km/h 51% 0.0 mm CLR
16:50 23.8 °C 13.4 °C 1006.5 hPa ESE 12.9 km/h 20.9 km/h 52% 0.0 mm CLR
16:54 24.0 °C 13.2 °C 1006.5 hPa East 13.7 km/h 22.2 km/h 51% 0.0 mm CLR
16:59 23.8 °C 13.3 °C 1006.5 hPa ESE 11.9 km/h 22.2 km/h 52% 0.0 mm CLR
17:05 23.7 °C 13.2 °C 1006.4 hPa ESE 11.3 km/h 24.1 km/h 52% 0.0 mm CLR
17:09 23.6 °C 13.4 °C 1006.4 hPa East 13.7 km/h 20.4 km/h 53% 0.0 mm CLR
17:15 23.3 °C 13.2 °C 1006.4 hPa ENE 12.9 km/h 22.5 km/h 53% 0.0 mm CLR
17:19 23.2 °C 13.1 °C 1006.2 hPa NE 10.0 km/h 20.4 km/h 53% 0.0 mm CLR
17:25 23.4 °C 13.2 °C 1006.2 hPa East 9.7 km/h 19.3 km/h 53% 0.0 mm CLR
17:29 23.6 °C 13.4 °C 1006.2 hPa SE 11.9 km/h 14.8 km/h 53% 0.0 mm CLR
17:35 23.6 °C 13.2 °C 1006.0 hPa ESE 11.3 km/h 24.1 km/h 52% 0.0 mm CLR
17:40 23.3 °C 13.2 °C 1006.0 hPa ESE 12.9 km/h 27.4 km/h 53% 0.0 mm CLR
17:45 23.2 °C 13.4 °C 1006.0 hPa ESE 12.9 km/h 27.4 km/h 54% 0.0 mm CLR
17:50 23.0 °C 13.4 °C 1005.9 hPa ESE 16.1 km/h 25.7 km/h 55% 0.0 mm CLR
17:54 23.1 °C 13.6 °C 1005.9 hPa ESE 17.2 km/h 27.8 km/h 55% 0.0 mm CLR
18:00 23.1 °C 13.6 °C 1005.9 hPa SE 14.5 km/h 27.4 km/h 55% 0.0 mm CLR
18:05 22.9 °C 13.7 °C 1005.9 hPa SE 14.0 km/h 25.9 km/h 56% 0.0 mm CLR
18:09 22.9 °C 13.7 °C 1005.9 hPa ESE 16.4 km/h 23.7 km/h 56% 0.0 mm CLR
18:14 22.9 °C 13.7 °C 1005.9 hPa ESE 16.4 km/h 20.4 km/h 56% 0.0 mm CLR
18:20 23.2 °C 13.9 °C 1005.7 hPa ESE 12.9 km/h 25.7 km/h 56% 0.0 mm CLR
18:24 22.7 °C 13.7 °C 1005.7 hPa SE 13.0 km/h 27.8 km/h 57% 0.0 mm CLR
18:29 22.6 °C 13.7 °C 1005.7 hPa ESE 16.4 km/h 20.4 km/h 57% 0.0 mm CLR
18:34 22.6 °C 13.7 °C 1005.6 hPa ESE 16.4 km/h 24.1 km/h 57% 0.0 mm CLR
18:39 22.4 °C 13.4 °C 1005.6 hPa SE 16.1 km/h 27.8 km/h 57% 0.0 mm CLR
18:44 22.3 °C 13.6 °C 1005.6 hPa ESE 16.1 km/h 25.6 km/h 58% 0.0 mm CLR
18:50 22.2 °C 13.6 °C 1005.6 hPa ESE 19.3 km/h 27.4 km/h 58% 0.0 mm CLR
18:54 22.1 °C 13.7 °C 1005.6 hPa SE 19.0 km/h 18.5 km/h 59% 0.0 mm CLR
19:00 22.1 °C 13.4 °C 1005.6 hPa ESE 16.1 km/h 27.4 km/h 58% 0.0 mm CLR
19:04 22.1 °C 13.4 °C 1005.4 hPa ESE 16.1 km/h 24.1 km/h 58% 0.0 mm CLR
19:09 21.9 °C 13.5 °C 1005.4 hPa East 17.2 km/h 24.1 km/h 59% 0.0 mm CLR
19:14 21.8 °C 13.4 °C 1005.4 hPa SE 17.2 km/h 24.1 km/h 59% 0.0 mm CLR
19:20 21.7 °C 13.3 °C 1005.4 hPa ESE 16.1 km/h 29.0 km/h 59% 0.0 mm CLR
19:24 21.7 °C 13.3 °C 1005.4 hPa SE 16.1 km/h 24.1 km/h 59% 0.0 mm CLR
19:29 21.7 °C 13.3 °C 1005.4 hPa ESE 14.8 km/h 27.8 km/h 59% 0.0 mm CLR
19:34 21.6 °C 13.2 °C 1005.3 hPa ENE 14.8 km/h 22.2 km/h 59% 0.0 mm CLR
19:39 21.4 °C 13.1 °C 1005.3 hPa ESE 16.4 km/h 27.8 km/h 59% 0.0 mm CLR
19:45 21.3 °C 13.2 °C 1005.3 hPa ESE 16.1 km/h 27.4 km/h 60% 0.0 mm CLR
19:49 21.3 °C 13.2 °C 1005.2 hPa ESE 16.1 km/h 29.6 km/h 60% 0.0 mm CLR
19:55 21.2 °C 13.1 °C 1005.2 hPa ESE 16.1 km/h 27.4 km/h 60% 0.0 mm CLR
19:59 21.2 °C 13.1 °C 1005.2 hPa ESE 15.6 km/h 20.4 km/h 60% 0.0 mm CLR
20:05 21.2 °C 13.3 °C 1005.0 hPa ESE 14.5 km/h 20.9 km/h 61% 0.0 mm CLR
20:09 21.1 °C 13.3 °C 1005.0 hPa ESE 13.0 km/h 14.8 km/h 61% 0.0 mm CLR
20:14 21.1 °C 13.3 °C 1005.0 hPa ESE 13.0 km/h 14.8 km/h 61% 0.0 mm CLR
20:19 21.1 °C 13.6 °C 1005.1 hPa ESE 10.0 km/h 11.1 km/h 62% 0.0 mm CLR
20:24 21.1 °C 13.6 °C 1005.1 hPa East 10.0 km/h 22.2 km/h 62% 0.0 mm CLR
20:29 21.0 °C 13.7 °C 1005.1 hPa SE 11.1 km/h 11.9 km/h 63% 0.0 mm CLR
20:34 20.9 °C 13.8 °C 1005.0 hPa ESE 11.1 km/h 18.5 km/h 64% 0.0 mm CLR
20:39 20.8 °C 14.0 °C 1005.0 hPa SE 10.0 km/h 13.7 km/h 65% 0.0 mm CLR
20:44 20.7 °C 13.9 °C 1005.0 hPa ESE 10.0 km/h 14.8 km/h 65% 0.0 mm CLR
20:50 20.8 °C 14.0 °C 1005.0 hPa ESE 9.7 km/h 17.7 km/h 65% 0.0 mm CLR
20:55 20.7 °C 14.1 °C 1005.0 hPa ESE 9.7 km/h 24.1 km/h 66% 0.0 mm CLR
20:59 20.6 °C 14.0 °C 1005.0 hPa SE 10.3 km/h 7.6 km/h 66% 0.0 mm CLR
21:04 20.6 °C 14.0 °C 1004.8 hPa ESE 10.3 km/h 9.3 km/h 66% 0.0 mm CLR
21:09 20.6 °C 14.0 °C 1004.8 hPa ESE 6.4 km/h 16.7 km/h 66% 0.0 mm CLR
21:15 20.5 °C 13.9 °C 1004.8 hPa SE 8.0 km/h 14.5 km/h 66% 0.0 mm CLR
21:19 20.4 °C 13.8 °C 1004.7 hPa SE 8.4 km/h 7.4 km/h 66% 0.0 mm CLR
21:24 20.4 °C 13.8 °C 1004.7 hPa East 8.4 km/h 8.4 km/h 66% 0.0 mm CLR
21:29 20.3 °C 13.7 °C 1004.7 hPa SE 4.7 km/h 11.1 km/h 66% 0.0 mm CLR
21:34 20.2 °C 13.7 °C 1004.8 hPa SSE 4.7 km/h 9.5 km/h 66% 0.0 mm CLR
21:39 20.2 °C 13.9 °C 1004.8 hPa SE 8.4 km/h 7.6 km/h 67% 0.0 mm CLR
21:44 20.2 °C 13.9 °C 1004.8 hPa SE 8.4 km/h 6.9 km/h 67% 0.0 mm CLR
21:49 20.1 °C 13.8 °C 1004.8 hPa SE 5.0 km/h 13.0 km/h 67% 0.0 mm CLR
21:54 20.1 °C 13.8 °C 1004.8 hPa ESE 5.0 km/h 9.3 km/h 67% 0.0 mm CLR
21:59 19.9 °C 13.6 °C 1004.8 hPa East 6.4 km/h 11.1 km/h 67% 0.0 mm CLR
22:04 19.8 °C 13.7 °C 1004.8 hPa East 6.4 km/h 7.6 km/h 68% 0.0 mm CLR
22:09 19.7 °C 13.6 °C 1004.8 hPa NE 6.4 km/h 5.6 km/h 68% 0.0 mm CLR
22:14 19.7 °C 13.6 °C 1004.8 hPa East 6.4 km/h 6.4 km/h 68% 0.0 mm CLR
22:20 19.6 °C 13.6 °C 1004.8 hPa ENE 3.2 km/h 8.0 km/h 68% 0.0 mm CLR
22:24 19.6 °C 13.6 °C 1004.8 hPa NE 3.9 km/h 5.6 km/h 68% 0.0 mm CLR
22:29 19.5 °C 13.4 °C 1004.8 hPa NNE 3.9 km/h 7.4 km/h 68% 0.0 mm CLR
22:34 19.4 °C 13.6 °C 1004.8 hPa NE 3.9 km/h 9.3 km/h 69% 0.0 mm CLR
22:39 19.3 °C 13.4 °C 1004.8 hPa NE 5.8 km/h 7.6 km/h 69% 0.0 mm CLR
22:44 19.2 °C 13.6 °C 1004.8 hPa NE 5.8 km/h 7.4 km/h 70% 0.0 mm CLR
22:49 19.0 °C 13.4 °C 1004.8 hPa North 5.8 km/h 9.3 km/h 70% 0.0 mm CLR
22:54 18.9 °C 13.3 °C 1004.8 hPa NE 5.8 km/h 9.3 km/h 70% 0.0 mm CLR
22:59 18.8 °C 13.4 °C 1004.8 hPa ENE 6.4 km/h 11.1 km/h 71% 0.0 mm CLR
23:04 18.7 °C 13.3 °C 1004.8 hPa NE 6.4 km/h 11.1 km/h 71% 0.0 mm CLR
23:09 18.6 °C 13.2 °C 1004.8 hPa North 6.9 km/h 7.4 km/h 71% 0.0 mm CLR
23:14 18.7 °C 13.6 °C 1004.8 hPa ENE 6.9 km/h 7.4 km/h 72% 0.0 mm CLR
23:19 18.6 °C 13.4 °C 1004.7 hPa ENE 6.4 km/h 13.0 km/h 72% 0.0 mm CLR
23:24 18.5 °C 13.6 °C 1004.7 hPa NE 6.4 km/h 9.3 km/h 73% 0.0 mm CLR
23:29 18.4 °C 13.4 °C 1004.7 hPa NNE 6.4 km/h 7.4 km/h 73% 0.0 mm CLR
23:34 18.4 °C 13.7 °C 1004.4 hPa ENE 6.4 km/h 7.4 km/h 74% 0.0 mm CLR
23:39 18.4 °C 13.7 °C 1004.4 hPa NE 5.0 km/h 9.3 km/h 74% 0.0 mm CLR
23:44 18.3 °C 13.8 °C 1004.4 hPa NE 5.0 km/h 7.6 km/h 75% 0.0 mm CLR
23:49 18.2 °C 13.7 °C 1004.3 hPa North 6.9 km/h 11.1 km/h 75% 0.0 mm CLR
23:54 18.1 °C 14.0 °C 1004.3 hPa NE 6.9 km/h 11.1 km/h 77% 0.0 mm CLR
23:59 18.1 °C 14.2 °C 1004.3 hPa NE 6.9 km/h 7.4 km/h 78% 0.0 mm CLR
Murcia-Puente Tocinos, España
Compliments of Weather Underground - 2.75 mb

La estación de MeteoMurcia.com, publica sus datos en los siguientes proyectos:

Weather Underground PWS IMURCIAP2 Meteoclimatic www.awekas.at

W3Counter
Web Analytics